West Bend, WI

4:30 PM CST on February 13, 2016 (GMT -0600)
KWIWESTB19 | | Change Station
CLOSE
Current Station
Personal Weather Station
Location: West Bend, WI
Elevation: 1017 ft
Nearby Weather Stations

Elev 1017 ft 43.44 °N, 88.22 °W | Updated 12 minutes ago

Clear
Clear
10.7 °F
Feels Like 3 °F
N
4.0
Wind Variable Wind from WNW
Gusts 6.0 mph

Today
High -- | Low -- °F
--% Chance of Precip.
Yesterday
High -- | Low -- °F
Precip. -- in
Pressure 30.49 in
Visibility 10.0 miles
Clouds Clear
Windchill 3 °F
Dew Point -3 °F
Humidity 55%
Rainfall 0.00 in
Snow Depth Not available.
6:54 AM 5:20 PM
Waxing Crescent, 34% visible
METAR KETB 132210Z AUTO 00000KT 10SM CLR M12/M22 A3049 RMK AO2
Pressure 30.49 in
Visibility 10.0 miles
Clouds Clear
Windchill 3 °F
Dew Point -3 °F
Humidity 55%
Rainfall 0.00 in
Snow Depth Not available.
6:54 AM 5:20 PM
Waxing Crescent, 34% visible
METAR KETB 132210Z AUTO 00000KT 10SM CLR M12/M22 A3049 RMK AO2

10-Day Weather Forecast

Almanac

Astronomy

Feb. 13, 2016 Rise Set
Actual Time
Civil Twilight
Nautical Twilight
Astronomical Twilight
Moon
Length of Visible Light
Length of Day
Tomorrow will be .
, % of the Moon is Illuminated

Today's Extremes

State Highs State Lows

Community

WunderPhotos

Upload Photos

1,892,688 photos uploaded!

WunderBlog® & News

Nearby

Air Quality

  Air Quality AQ Index Pollutant
Not available.

Snow Depth

Station Depth Elevation

Earthquake Activity

City Distance Mag. Time & Date
Minimum magnitude displayed is 2.5.

Coastal Water Temperatures

Place Temperature

Stations

Nearby Weather Stations

Station Location Temp. Windchill Dew Point Humidity Wind Precip. Elev Updated Type
                   

Watches & Warnings

There are currently no watches in effect.